Terminal Aerodrome Forecast
Issued by NWS Quad Cities IA IL

Home | Current Version | Previous Version | Text Only | Print | Product List | Glossary On
Versions: 1 2 3 4 5 6 7 8 9 10 11 12 13 14 15 16 17 18 19 20
000
FTUS43 KDVN 222300
TAFDBQ
TAF
KDBQ 222325Z 2300/2324 01007KT P6SM SCT250
     FM230600 07006KT P6SM SCT120 BKN250
     FM231200 12011KT P6SM OVC100
     FM231800 15014KT P6SM VCSH OVC060=

USA.gov is the U.S. government's official web portal to all federal, state and local government web resources and services.